sensor_id;sensor_type;location;lat;lon;timestamp;P1;durP1;ratioP1;P2;durP2;ratioP2
5465;SDS011;2755;50.728;7.108;2023-04-25T00:01:03;6.60;;;2.90;;
5465;SDS011;2755;50.728;7.108;2023-04-25T00:03:30;6.43;;;3.17;;
5465;SDS011;2755;50.728;7.108;2023-04-25T00:05:57;7.33;;;4.23;;
5465;SDS011;2755;50.728;7.108;2023-04-25T00:08:26;10.33;;;4.13;;
5465;SDS011;2755;50.728;7.108;2023-04-25T00:10:52;9.87;;;3.60;;
5465;SDS011;2755;50.728;7.108;2023-04-25T00:13:18;12.83;;;4.40;;
5465;SDS011;2755;50.728;7.108;2023-04-25T00:15:44;5.23;;;3.30;;
5465;SDS011;2755;50.728;7.108;2023-04-25T00:18:11;6.63;;;2.90;;
5465;SDS011;2755;50.728;7.108;2023-04-25T00:20:36;9.20;;;3.73;;
5465;SDS011;2755;50.728;7.108;2023-04-25T00:23:02;5.20;;;3.00;;
5465;SDS011;2755;50.728;7.108;2023-04-25T00:25:27;4.77;;;3.10;;
5465;SDS011;2755;50.728;7.108;2023-04-25T00:27:53;7.37;;;4.03;;
5465;SDS011;2755;50.728;7.108;2023-04-25T00:30:19;6.73;;;4.10;;
5465;SDS011;2755;50.728;7.108;2023-04-25T00:32:45;9.80;;;4.73;;
5465;SDS011;2755;50.728;7.108;2023-04-25T00:35:11;11.20;;;3.80;;
5465;SDS011;2755;50.728;7.108;2023-04-25T00:37:36;10.63;;;4.03;;
5465;SDS011;2755;50.728;7.108;2023-04-25T00:40:03;6.63;;;3.90;;
5465;SDS011;2755;50.728;7.108;2023-04-25T00:42:31;8.60;;;4.00;;
5465;SDS011;2755;50.728;7.108;2023-04-25T00:44:56;11.57;;;4.27;;
5465;SDS011;2755;50.728;7.108;2023-04-25T00:47:24;15.83;;;3.93;;
5465;SDS011;2755;50.728;7.108;2023-04-25T00:49:50;8.60;;;4.07;;
5465;SDS011;2755;50.728;7.108;2023-04-25T00:52:16;11.97;;;4.10;;
5465;SDS011;2755;50.728;7.108;2023-04-25T00:54:42;10.03;;;4.27;;
5465;SDS011;2755;50.728;7.108;2023-04-25T00:57:08;14.80;;;4.83;;
5465;SDS011;2755;50.728;7.108;2023-04-25T00:59:33;11.33;;;4.57;;
5465;SDS011;2755;50.728;7.108;2023-04-25T01:02:00;6.90;;;4.50;;
5465;SDS011;2755;50.728;7.108;2023-04-25T01:04:27;7.63;;;4.00;;
5465;SDS011;2755;50.728;7.108;2023-04-25T01:06:53;12.23;;;4.60;;
5465;SDS011;2755;50.728;7.108;2023-04-25T01:09:20;7.57;;;4.73;;
5465;SDS011;2755;50.728;7.108;2023-04-25T01:11:47;8.37;;;3.67;;
5465;SDS011;2755;50.728;7.108;2023-04-25T01:14:14;10.70;;;4.40;;
5465;SDS011;2755;50.728;7.108;2023-04-25T01:16:39;5.70;;;4.17;;
5465;SDS011;2755;50.728;7.108;2023-04-25T01:19:09;12.57;;;4.07;;
5465;SDS011;2755;50.728;7.108;2023-04-25T01:21:38;5.53;;;3.70;;
5465;SDS011;2755;50.728;7.108;2023-04-25T01:24:04;14.10;;;5.07;;
5465;SDS011;2755;50.728;7.108;2023-04-25T01:26:30;9.30;;;4.77;;
5465;SDS011;2755;50.728;7.108;2023-04-25T01:28:57;8.67;;;3.27;;
5465;SDS011;2755;50.728;7.108;2023-04-25T01:31:23;12.50;;;4.17;;
5465;SDS011;2755;50.728;7.108;2023-04-25T01:33:49;7.67;;;4.17;;
5465;SDS011;2755;50.728;7.108;2023-04-25T01:36:15;8.60;;;4.23;;
5465;SDS011;2755;50.728;7.108;2023-04-25T01:38:42;13.37;;;4.23;;
5465;SDS011;2755;50.728;7.108;2023-04-25T01:41:08;8.67;;;4.17;;
5465;SDS011;2755;50.728;7.108;2023-04-25T01:43:34;8.93;;;4.60;;
5465;SDS011;2755;50.728;7.108;2023-04-25T01:46:01;7.30;;;4.07;;
5465;SDS011;2755;50.728;7.108;2023-04-25T01:48:26;8.10;;;4.40;;
5465;SDS011;2755;50.728;7.108;2023-04-25T01:50:52;7.30;;;4.33;;
5465;SDS011;2755;50.728;7.108;2023-04-25T01:53:17;8.97;;;4.03;;
5465;SDS011;2755;50.728;7.108;2023-04-25T01:55:43;6.90;;;4.60;;
5465;SDS011;2755;50.728;7.108;2023-04-25T01:58:09;10.10;;;4.80;;
5465;SDS011;2755;50.728;7.108;2023-04-25T02:00:37;10.27;;;4.30;;
5465;SDS011;2755;50.728;7.108;2023-04-25T02:03:03;13.33;;;5.03;;
5465;SDS011;2755;50.728;7.108;2023-04-25T02:05:34;8.50;;;4.20;;
5465;SDS011;2755;50.728;7.108;2023-04-25T02:08:04;7.17;;;4.63;;
5465;SDS011;2755;50.728;7.108;2023-04-25T02:10:31;6.70;;;3.97;;
5465;SDS011;2755;50.728;7.108;2023-04-25T02:12:57;9.40;;;4.40;;
5465;SDS011;2755;50.728;7.108;2023-04-25T02:15:23;12.47;;;5.57;;
5465;SDS011;2755;50.728;7.108;2023-04-25T02:17:49;6.23;;;4.50;;
5465;SDS011;2755;50.728;7.108;2023-04-25T02:20:17;8.27;;;4.40;;
5465;SDS011;2755;50.728;7.108;2023-04-25T02:22:44;10.80;;;4.77;;
5465;SDS011;2755;50.728;7.108;2023-04-25T02:25:10;14.07;;;5.03;;
5465;SDS011;2755;50.728;7.108;2023-04-25T02:27:36;21.37;;;5.50;;
5465;SDS011;2755;50.728;7.108;2023-04-25T02:30:02;8.70;;;4.93;;
5465;SDS011;2755;50.728;7.108;2023-04-25T02:32:29;12.87;;;4.90;;
5465;SDS011;2755;50.728;7.108;2023-04-25T02:34:55;8.80;;;4.90;;
5465;SDS011;2755;50.728;7.108;2023-04-25T02:37:23;9.80;;;5.87;;
5465;SDS011;2755;50.728;7.108;2023-04-25T02:39:49;8.27;;;5.20;;
5465;SDS011;2755;50.728;7.108;2023-04-25T02:42:15;12.87;;;5.30;;
5465;SDS011;2755;50.728;7.108;2023-04-25T02:44:40;7.23;;;4.60;;
5465;SDS011;2755;50.728;7.108;2023-04-25T02:47:06;9.40;;;4.63;;
5465;SDS011;2755;50.728;7.108;2023-04-25T02:49:31;7.27;;;4.80;;
5465;SDS011;2755;50.728;7.108;2023-04-25T02:51:57;8.00;;;4.60;;
5465;SDS011;2755;50.728;7.108;2023-04-25T02:54:22;14.67;;;5.27;;
5465;SDS011;2755;50.728;7.108;2023-04-25T02:56:48;10.30;;;5.27;;
5465;SDS011;2755;50.728;7.108;2023-04-25T02:59:15;12.93;;;5.63;;
5465;SDS011;2755;50.728;7.108;2023-04-25T03:01:40;9.47;;;4.37;;
5465;SDS011;2755;50.728;7.108;2023-04-25T03:04:06;7.57;;;4.03;;
5465;SDS011;2755;50.728;7.108;2023-04-25T03:06:31;8.60;;;4.00;;
5465;SDS011;2755;50.728;7.108;2023-04-25T03:08:57;8.40;;;5.00;;
5465;SDS011;2755;50.728;7.108;2023-04-25T03:11:24;12.73;;;4.70;;
5465;SDS011;2755;50.728;7.108;2023-04-25T03:13:50;11.43;;;5.23;;
5465;SDS011;2755;50.728;7.108;2023-04-25T03:16:16;9.67;;;4.50;;
5465;SDS011;2755;50.728;7.108;2023-04-25T03:18:41;12.87;;;3.90;;
5465;SDS011;2755;50.728;7.108;2023-04-25T03:21:07;8.67;;;4.70;;
5465;SDS011;2755;50.728;7.108;2023-04-25T03:23:33;11.63;;;5.10;;
5465;SDS011;2755;50.728;7.108;2023-04-25T03:25:58;15.30;;;5.20;;
5465;SDS011;2755;50.728;7.108;2023-04-25T03:28:24;10.93;;;4.70;;
5465;SDS011;2755;50.728;7.108;2023-04-25T03:30:50;10.53;;;4.20;;
5465;SDS011;2755;50.728;7.108;2023-04-25T03:33:15;23.30;;;5.90;;
5465;SDS011;2755;50.728;7.108;2023-04-25T03:35:41;9.07;;;4.60;;
5465;SDS011;2755;50.728;7.108;2023-04-25T03:38:07;11.37;;;5.13;;
5465;SDS011;2755;50.728;7.108;2023-04-25T03:40:33;7.17;;;4.70;;
5465;SDS011;2755;50.728;7.108;2023-04-25T03:42:59;5.80;;;3.93;;
5465;SDS011;2755;50.728;7.108;2023-04-25T03:45:25;13.40;;;4.70;;
5465;SDS011;2755;50.728;7.108;2023-04-25T03:47:50;11.80;;;4.60;;
5465;SDS011;2755;50.728;7.108;2023-04-25T03:50:16;14.10;;;5.07;;
5465;SDS011;2755;50.728;7.108;2023-04-25T03:52:42;7.17;;;4.33;;
5465;SDS011;2755;50.728;7.108;2023-04-25T03:55:08;13.80;;;4.07;;
5465;SDS011;2755;50.728;7.108;2023-04-25T03:57:34;17.50;;;5.43;;
5465;SDS011;2755;50.728;7.108;2023-04-25T03:59:59;14.57;;;5.77;;
5465;SDS011;2755;50.728;7.108;2023-04-25T04:02:25;18.87;;;5.77;;
5465;SDS011;2755;50.728;7.108;2023-04-25T04:04:50;10.63;;;4.70;;
5465;SDS011;2755;50.728;7.108;2023-04-25T04:07:16;14.17;;;5.30;;
5465;SDS011;2755;50.728;7.108;2023-04-25T04:09:41;15.70;;;5.83;;
5465;SDS011;2755;50.728;7.108;2023-04-25T04:12:07;14.50;;;5.47;;
5465;SDS011;2755;50.728;7.108;2023-04-25T04:14:33;11.93;;;5.40;;
5465;SDS011;2755;50.728;7.108;2023-04-25T04:16:58;10.67;;;5.30;;
5465;SDS011;2755;50.728;7.108;2023-04-25T04:19:25;12.27;;;4.60;;
5465;SDS011;2755;50.728;7.108;2023-04-25T04:21:50;10.57;;;4.63;;
5465;SDS011;2755;50.728;7.108;2023-04-25T04:24:16;13.50;;;5.37;;
5465;SDS011;2755;50.728;7.108;2023-04-25T04:26:41;9.97;;;4.40;;
5465;SDS011;2755;50.728;7.108;2023-04-25T04:29:10;9.57;;;3.90;;
5465;SDS011;2755;50.728;7.108;2023-04-25T04:31:36;12.67;;;4.93;;
5465;SDS011;2755;50.728;7.108;2023-04-25T04:34:02;6.30;;;4.30;;
5465;SDS011;2755;50.728;7.108;2023-04-25T04:36:28;10.10;;;4.70;;
5465;SDS011;2755;50.728;7.108;2023-04-25T04:38:54;13.83;;;5.20;;
5465;SDS011;2755;50.728;7.108;2023-04-25T04:41:21;9.30;;;5.10;;
5465;SDS011;2755;50.728;7.108;2023-04-25T04:43:47;16.50;;;5.33;;
5465;SDS011;2755;50.728;7.108;2023-04-25T04:46:13;10.63;;;5.63;;
5465;SDS011;2755;50.728;7.108;2023-04-25T04:48:39;14.20;;;5.00;;
5465;SDS011;2755;50.728;7.108;2023-04-25T04:51:05;14.20;;;6.30;;
5465;SDS011;2755;50.728;7.108;2023-04-25T04:53:31;10.33;;;4.63;;
5465;SDS011;2755;50.728;7.108;2023-04-25T04:55:57;15.00;;;5.87;;
5465;SDS011;2755;50.728;7.108;2023-04-25T04:58:23;19.13;;;6.17;;
5465;SDS011;2755;50.728;7.108;2023-04-25T05:00:48;12.43;;;4.57;;
5465;SDS011;2755;50.728;7.108;2023-04-25T05:03:14;12.90;;;6.20;;
5465;SDS011;2755;50.728;7.108;2023-04-25T05:05:40;13.97;;;5.40;;
5465;SDS011;2755;50.728;7.108;2023-04-25T05:08:06;7.47;;;3.80;;
5465;SDS011;2755;50.728;7.108;2023-04-25T05:10:32;18.83;;;5.30;;
5465;SDS011;2755;50.728;7.108;2023-04-25T05:12:58;14.63;;;5.30;;
5465;SDS011;2755;50.728;7.108;2023-04-25T05:15:24;17.63;;;5.90;;
5465;SDS011;2755;50.728;7.108;2023-04-25T05:17:50;18.23;;;4.97;;
5465;SDS011;2755;50.728;7.108;2023-04-25T05:20:16;13.57;;;5.43;;
5465;SDS011;2755;50.728;7.108;2023-04-25T05:22:43;13.23;;;5.37;;
5465;SDS011;2755;50.728;7.108;2023-04-25T05:25:10;16.57;;;5.67;;
5465;SDS011;2755;50.728;7.108;2023-04-25T05:27:36;15.80;;;5.60;;
5465;SDS011;2755;50.728;7.108;2023-04-25T05:30:01;17.77;;;5.60;;
5465;SDS011;2755;50.728;7.108;2023-04-25T05:32:27;10.23;;;5.53;;
5465;SDS011;2755;50.728;7.108;2023-04-25T05:34:53;15.33;;;5.30;;
5465;SDS011;2755;50.728;7.108;2023-04-25T05:37:19;13.73;;;5.20;;
5465;SDS011;2755;50.728;7.108;2023-04-25T05:39:46;19.40;;;5.60;;
5465;SDS011;2755;50.728;7.108;2023-04-25T05:42:12;16.33;;;6.80;;
5465;SDS011;2755;50.728;7.108;2023-04-25T05:44:38;16.73;;;5.43;;
5465;SDS011;2755;50.728;7.108;2023-04-25T05:47:04;28.37;;;6.13;;
5465;SDS011;2755;50.728;7.108;2023-04-25T05:49:29;23.20;;;6.70;;
5465;SDS011;2755;50.728;7.108;2023-04-25T05:51:55;18.50;;;5.70;;
5465;SDS011;2755;50.728;7.108;2023-04-25T05:54:21;13.90;;;5.73;;
5465;SDS011;2755;50.728;7.108;2023-04-25T05:56:47;22.60;;;6.10;;
5465;SDS011;2755;50.728;7.108;2023-04-25T05:59:13;16.97;;;6.03;;
5465;SDS011;2755;50.728;7.108;2023-04-25T06:01:38;15.57;;;5.20;;
5465;SDS011;2755;50.728;7.108;2023-04-25T06:04:05;13.23;;;5.10;;
5465;SDS011;2755;50.728;7.108;2023-04-25T06:06:30;8.83;;;3.77;;
5465;SDS011;2755;50.728;7.108;2023-04-25T06:08:57;20.60;;;5.63;;
5465;SDS011;2755;50.728;7.108;2023-04-25T06:11:22;18.17;;;5.73;;
5465;SDS011;2755;50.728;7.108;2023-04-25T06:13:48;9.60;;;5.57;;
5465;SDS011;2755;50.728;7.108;2023-04-25T06:16:14;18.67;;;6.40;;
5465;SDS011;2755;50.728;7.108;2023-04-25T06:18:40;16.60;;;6.00;;
5465;SDS011;2755;50.728;7.108;2023-04-25T06:21:05;16.63;;;5.40;;
5465;SDS011;2755;50.728;7.108;2023-04-25T06:23:31;17.60;;;5.33;;
5465;SDS011;2755;50.728;7.108;2023-04-25T06:25:57;19.43;;;5.50;;
5465;SDS011;2755;50.728;7.108;2023-04-25T06:28:24;23.07;;;5.97;;
5465;SDS011;2755;50.728;7.108;2023-04-25T06:30:50;20.23;;;5.90;;
5465;SDS011;2755;50.728;7.108;2023-04-25T06:33:16;11.57;;;5.03;;
5465;SDS011;2755;50.728;7.108;2023-04-25T06:35:42;14.60;;;5.10;;
5465;SDS011;2755;50.728;7.108;2023-04-25T06:38:08;17.97;;;5.70;;
5465;SDS011;2755;50.728;7.108;2023-04-25T06:40:33;15.50;;;5.40;;
5465;SDS011;2755;50.728;7.108;2023-04-25T06:43:00;16.13;;;5.20;;
5465;SDS011;2755;50.728;7.108;2023-04-25T06:45:26;15.30;;;6.30;;
5465;SDS011;2755;50.728;7.108;2023-04-25T06:47:51;20.07;;;5.60;;
5465;SDS011;2755;50.728;7.108;2023-04-25T06:50:17;11.50;;;5.37;;
5465;SDS011;2755;50.728;7.108;2023-04-25T06:52:43;15.73;;;4.60;;
5465;SDS011;2755;50.728;7.108;2023-04-25T06:55:08;16.07;;;5.10;;
5465;SDS011;2755;50.728;7.108;2023-04-25T06:57:34;15.93;;;5.20;;
5465;SDS011;2755;50.728;7.108;2023-04-25T07:00:00;20.67;;;5.63;;
5465;SDS011;2755;50.728;7.108;2023-04-25T07:02:25;14.83;;;4.63;;
5465;SDS011;2755;50.728;7.108;2023-04-25T07:04:51;11.80;;;4.80;;
5465;SDS011;2755;50.728;7.108;2023-04-25T07:07:17;12.63;;;5.00;;
5465;SDS011;2755;50.728;7.108;2023-04-25T07:09:43;12.97;;;4.60;;
5465;SDS011;2755;50.728;7.108;2023-04-25T07:12:09;13.50;;;3.90;;
5465;SDS011;2755;50.728;7.108;2023-04-25T07:14:35;23.77;;;5.53;;
5465;SDS011;2755;50.728;7.108;2023-04-25T07:17:01;10.33;;;4.27;;
5465;SDS011;2755;50.728;7.108;2023-04-25T07:19:26;12.93;;;4.53;;
5465;SDS011;2755;50.728;7.108;2023-04-25T07:21:54;11.20;;;4.37;;
5465;SDS011;2755;50.728;7.108;2023-04-25T07:24:20;18.63;;;4.27;;
5465;SDS011;2755;50.728;7.108;2023-04-25T07:26:46;27.40;;;5.00;;
5465;SDS011;2755;50.728;7.108;2023-04-25T07:29:12;12.63;;;3.67;;
5465;SDS011;2755;50.728;7.108;2023-04-25T07:31:37;19.50;;;4.50;;
5465;SDS011;2755;50.728;7.108;2023-04-25T07:34:03;18.43;;;3.63;;
5465;SDS011;2755;50.728;7.108;2023-04-25T07:36:29;16.40;;;4.30;;
5465;SDS011;2755;50.728;7.108;2023-04-25T07:38:55;11.23;;;3.00;;
5465;SDS011;2755;50.728;7.108;2023-04-25T07:41:21;6.87;;;3.70;;
5465;SDS011;2755;50.728;7.108;2023-04-25T07:43:47;13.10;;;3.17;;
5465;SDS011;2755;50.728;7.108;2023-04-25T07:46:12;10.13;;;3.20;;
5465;SDS011;2755;50.728;7.108;2023-04-25T07:48:38;12.37;;;2.97;;
5465;SDS011;2755;50.728;7.108;2023-04-25T07:51:04;13.80;;;2.87;;
5465;SDS011;2755;50.728;7.108;2023-04-25T07:53:32;17.33;;;3.27;;
5465;SDS011;2755;50.728;7.108;2023-04-25T07:55:59;15.63;;;3.60;;
5465;SDS011;2755;50.728;7.108;2023-04-25T07:58:25;16.63;;;3.73;;
5465;SDS011;2755;50.728;7.108;2023-04-25T08:00:51;13.60;;;2.80;;
5465;SDS011;2755;50.728;7.108;2023-04-25T08:03:17;10.93;;;2.90;;
5465;SDS011;2755;50.728;7.108;2023-04-25T08:05:42;9.30;;;2.93;;
5465;SDS011;2755;50.728;7.108;2023-04-25T08:08:09;8.27;;;2.83;;
5465;SDS011;2755;50.728;7.108;2023-04-25T08:10:34;11.63;;;3.40;;
5465;SDS011;2755;50.728;7.108;2023-04-25T08:13:00;6.10;;;2.53;;
5465;SDS011;2755;50.728;7.108;2023-04-25T08:15:26;9.73;;;3.03;;
5465;SDS011;2755;50.728;7.108;2023-04-25T08:17:52;8.90;;;2.83;;
5465;SDS011;2755;50.728;7.108;2023-04-25T08:20:18;16.00;;;3.87;;
5465;SDS011;2755;50.728;7.108;2023-04-25T08:22:43;13.63;;;2.57;;
5465;SDS011;2755;50.728;7.108;2023-04-25T08:25:09;6.73;;;2.17;;
5465;SDS011;2755;50.728;7.108;2023-04-25T08:27:35;14.40;;;3.77;;
5465;SDS011;2755;50.728;7.108;2023-04-25T08:30:01;9.70;;;2.77;;
5465;SDS011;2755;50.728;7.108;2023-04-25T08:32:28;11.00;;;2.60;;
5465;SDS011;2755;50.728;7.108;2023-04-25T08:34:54;6.03;;;2.10;;
5465;SDS011;2755;50.728;7.108;2023-04-25T08:37:20;9.60;;;1.97;;
5465;SDS011;2755;50.728;7.108;2023-04-25T08:39:46;19.77;;;3.00;;
5465;SDS011;2755;50.728;7.108;2023-04-25T08:42:13;8.20;;;2.70;;
5465;SDS011;2755;50.728;7.108;2023-04-25T08:44:40;11.00;;;2.77;;
5465;SDS011;2755;50.728;7.108;2023-04-25T08:47:06;8.63;;;2.70;;
5465;SDS011;2755;50.728;7.108;2023-04-25T08:49:32;11.40;;;2.47;;
5465;SDS011;2755;50.728;7.108;2023-04-25T08:51:59;11.93;;;2.77;;
5465;SDS011;2755;50.728;7.108;2023-04-25T08:54:27;8.13;;;1.90;;
5465;SDS011;2755;50.728;7.108;2023-04-25T08:56:54;19.00;;;3.67;;
5465;SDS011;2755;50.728;7.108;2023-04-25T08:59:22;11.17;;;2.50;;
5465;SDS011;2755;50.728;7.108;2023-04-25T09:01:51;11.63;;;2.53;;
5465;SDS011;2755;50.728;7.108;2023-04-25T09:04:17;7.70;;;2.67;;
5465;SDS011;2755;50.728;7.108;2023-04-25T09:06:45;15.10;;;3.43;;
5465;SDS011;2755;50.728;7.108;2023-04-25T09:09:11;6.40;;;2.33;;
5465;SDS011;2755;50.728;7.108;2023-04-25T09:11:37;8.23;;;2.20;;
5465;SDS011;2755;50.728;7.108;2023-04-25T09:14:13;6.30;;;2.10;;
5465;SDS011;2755;50.728;7.108;2023-04-25T09:19:21;22.23;;;2.50;;
5465;SDS011;2755;50.728;7.108;2023-04-25T09:21:53;8.23;;;1.90;;
5465;SDS011;2755;50.728;7.108;2023-04-25T09:24:42;6.70;;;2.47;;
5465;SDS011;2755;50.728;7.108;2023-04-25T09:27:09;7.07;;;1.93;;
5465;SDS011;2755;50.728;7.108;2023-04-25T09:29:37;5.83;;;1.80;;
5465;SDS011;2755;50.728;7.108;2023-04-25T09:34:45;4.93;;;2.00;;
5465;SDS011;2755;50.728;7.108;2023-04-25T09:37:19;15.83;;;2.87;;
5465;SDS011;2755;50.728;7.108;2023-04-25T09:39:46;11.80;;;2.83;;
5465;SDS011;2755;50.728;7.108;2023-04-25T09:42:13;8.90;;;2.03;;
5465;SDS011;2755;50.728;7.108;2023-04-25T09:44:47;8.30;;;1.87;;
5465;SDS011;2755;50.728;7.108;2023-04-25T09:47:14;5.40;;;1.50;;
5465;SDS011;2755;50.728;7.108;2023-04-25T09:49:42;5.27;;;1.73;;
5465;SDS011;2755;50.728;7.108;2023-04-25T09:52:09;6.83;;;2.00;;
5465;SDS011;2755;50.728;7.108;2023-04-25T09:54:39;3.43;;;1.63;;
5465;SDS011;2755;50.728;7.108;2023-04-25T09:57:12;7.33;;;2.07;;
5465;SDS011;2755;50.728;7.108;2023-04-25T09:59:54;8.00;;;2.30;;
5465;SDS011;2755;50.728;7.108;2023-04-25T10:02:24;8.63;;;2.00;;
5465;SDS011;2755;50.728;7.108;2023-04-25T10:04:51;11.03;;;1.90;;
5465;SDS011;2755;50.728;7.108;2023-04-25T10:07:24;7.40;;;2.53;;
5465;SDS011;2755;50.728;7.108;2023-04-25T10:09:55;12.87;;;2.00;;
5465;SDS011;2755;50.728;7.108;2023-04-25T10:12:27;8.47;;;1.77;;
5465;SDS011;2755;50.728;7.108;2023-04-25T10:14:54;6.30;;;1.53;;
5465;SDS011;2755;50.728;7.108;2023-04-25T10:17:20;5.53;;;1.80;;
5465;SDS011;2755;50.728;7.108;2023-04-25T10:19:49;13.43;;;2.50;;
5465;SDS011;2755;50.728;7.108;2023-04-25T10:25:01;4.57;;;1.67;;
5465;SDS011;2755;50.728;7.108;2023-04-25T10:27:29;12.23;;;2.30;;
5465;SDS011;2755;50.728;7.108;2023-04-25T10:32:34;7.23;;;2.07;;
5465;SDS011;2755;50.728;7.108;2023-04-25T10:38:02;14.47;;;2.90;;
5465;SDS011;2755;50.728;7.108;2023-04-25T10:40:30;6.00;;;2.00;;
5465;SDS011;2755;50.728;7.108;2023-04-25T10:42:57;11.30;;;2.47;;
5465;SDS011;2755;50.728;7.108;2023-04-25T10:46:01;10.00;;;2.97;;
5465;SDS011;2755;50.728;7.108;2023-04-25T10:48:31;9.40;;;2.30;;
5465;SDS011;2755;50.728;7.108;2023-04-25T10:51:09;7.27;;;2.23;;
5465;SDS011;2755;50.728;7.108;2023-04-25T10:53:36;4.50;;;2.10;;
5465;SDS011;2755;50.728;7.108;2023-04-25T10:58:41;11.73;;;2.23;;
5465;SDS011;2755;50.728;7.108;2023-04-25T11:01:08;8.87;;;2.67;;
5465;SDS011;2755;50.728;7.108;2023-04-25T11:03:38;5.67;;;2.30;;
5465;SDS011;2755;50.728;7.108;2023-04-25T11:06:15;10.03;;;2.37;;
5465;SDS011;2755;50.728;7.108;2023-04-25T11:08:52;11.47;;;3.00;;
5465;SDS011;2755;50.728;7.108;2023-04-25T11:11:17;6.70;;;2.67;;
5465;SDS011;2755;50.728;7.108;2023-04-25T11:13:44;9.80;;;2.60;;
5465;SDS011;2755;50.728;7.108;2023-04-25T11:16:13;7.07;;;3.53;;
5465;SDS011;2755;50.728;7.108;2023-04-25T11:18:42;7.23;;;3.03;;
5465;SDS011;2755;50.728;7.108;2023-04-25T11:21:09;11.13;;;2.60;;
5465;SDS011;2755;50.728;7.108;2023-04-25T11:23:35;11.50;;;2.30;;
5465;SDS011;2755;50.728;7.108;2023-04-25T11:26:01;10.17;;;2.33;;
5465;SDS011;2755;50.728;7.108;2023-04-25T11:28:30;8.63;;;2.60;;
5465;SDS011;2755;50.728;7.108;2023-04-25T11:30:56;6.20;;;1.93;;
5465;SDS011;2755;50.728;7.108;2023-04-25T11:33:25;8.60;;;2.30;;
5465;SDS011;2755;50.728;7.108;2023-04-25T11:35:55;6.87;;;2.33;;
5465;SDS011;2755;50.728;7.108;2023-04-25T11:38:24;7.93;;;2.00;;
5465;SDS011;2755;50.728;7.108;2023-04-25T11:40:51;6.17;;;2.20;;
5465;SDS011;2755;50.728;7.108;2023-04-25T11:43:17;4.20;;;1.90;;
5465;SDS011;2755;50.728;7.108;2023-04-25T11:45:46;7.40;;;2.23;;
5465;SDS011;2755;50.728;7.108;2023-04-25T11:48:12;9.87;;;2.10;;
5465;SDS011;2755;50.728;7.108;2023-04-25T11:50:39;11.90;;;2.73;;
5465;SDS011;2755;50.728;7.108;2023-04-25T11:53:04;10.37;;;2.43;;
5465;SDS011;2755;50.728;7.108;2023-04-25T11:55:31;6.97;;;2.70;;
5465;SDS011;2755;50.728;7.108;2023-04-25T11:57:59;11.07;;;2.90;;
5465;SDS011;2755;50.728;7.108;2023-04-25T12:00:25;6.10;;;2.20;;
5465;SDS011;2755;50.728;7.108;2023-04-25T12:02:55;10.20;;;2.27;;
5465;SDS011;2755;50.728;7.108;2023-04-25T12:05:28;5.13;;;1.93;;
5465;SDS011;2755;50.728;7.108;2023-04-25T12:07:55;8.33;;;2.67;;
5465;SDS011;2755;50.728;7.108;2023-04-25T12:10:23;10.30;;;2.20;;
5465;SDS011;2755;50.728;7.108;2023-04-25T12:12:50;3.97;;;1.90;;
5465;SDS011;2755;50.728;7.108;2023-04-25T12:15:25;8.73;;;2.00;;
5465;SDS011;2755;50.728;7.108;2023-04-25T12:17:51;7.67;;;1.87;;
5465;SDS011;2755;50.728;7.108;2023-04-25T12:20:21;8.23;;;1.67;;
5465;SDS011;2755;50.728;7.108;2023-04-25T12:22:51;3.70;;;1.50;;
5465;SDS011;2755;50.728;7.108;2023-04-25T12:25:36;5.30;;;1.87;;
5465;SDS011;2755;50.728;7.108;2023-04-25T12:28:16;3.23;;;1.60;;
5465;SDS011;2755;50.728;7.108;2023-04-25T12:33:30;4.80;;;1.80;;
5465;SDS011;2755;50.728;7.108;2023-04-25T12:36:00;4.57;;;1.63;;
5465;SDS011;2755;50.728;7.108;2023-04-25T12:38:39;7.10;;;2.07;;
5465;SDS011;2755;50.728;7.108;2023-04-25T12:41:05;4.40;;;1.80;;
5465;SDS011;2755;50.728;7.108;2023-04-25T12:43:31;4.00;;;1.80;;
5465;SDS011;2755;50.728;7.108;2023-04-25T12:45:57;7.53;;;1.77;;
5465;SDS011;2755;50.728;7.108;2023-04-25T12:48:23;13.80;;;2.87;;
5465;SDS011;2755;50.728;7.108;2023-04-25T12:50:50;7.60;;;2.63;;
5465;SDS011;2755;50.728;7.108;2023-04-25T12:53:20;13.10;;;2.13;;
5465;SDS011;2755;50.728;7.108;2023-04-25T12:55:47;8.97;;;2.00;;
5465;SDS011;2755;50.728;7.108;2023-04-25T12:58:17;8.03;;;2.23;;
5465;SDS011;2755;50.728;7.108;2023-04-25T13:00:43;8.83;;;1.70;;
5465;SDS011;2755;50.728;7.108;2023-04-25T13:03:09;6.50;;;2.13;;
5465;SDS011;2755;50.728;7.108;2023-04-25T13:05:38;6.47;;;1.70;;
5465;SDS011;2755;50.728;7.108;2023-04-25T13:08:04;4.27;;;1.57;;
5465;SDS011;2755;50.728;7.108;2023-04-25T13:10:30;6.57;;;2.53;;
5465;SDS011;2755;50.728;7.108;2023-04-25T13:12:56;7.80;;;1.70;;
5465;SDS011;2755;50.728;7.108;2023-04-25T13:15:26;6.10;;;1.80;;
5465;SDS011;2755;50.728;7.108;2023-04-25T13:17:52;4.87;;;1.77;;
5465;SDS011;2755;50.728;7.108;2023-04-25T13:20:17;6.03;;;1.40;;
5465;SDS011;2755;50.728;7.108;2023-04-25T13:22:43;5.63;;;1.60;;
5465;SDS011;2755;50.728;7.108;2023-04-25T13:25:10;2.80;;;1.53;;
5465;SDS011;2755;50.728;7.108;2023-04-25T13:27:36;10.43;;;2.13;;
5465;SDS011;2755;50.728;7.108;2023-04-25T13:30:03;6.60;;;1.80;;
5465;SDS011;2755;50.728;7.108;2023-04-25T13:32:33;12.87;;;1.93;;
5465;SDS011;2755;50.728;7.108;2023-04-25T13:35:00;3.50;;;1.67;;
5465;SDS011;2755;50.728;7.108;2023-04-25T13:37:27;9.73;;;2.53;;
5465;SDS011;2755;50.728;7.108;2023-04-25T13:39:54;8.83;;;1.60;;
5465;SDS011;2755;50.728;7.108;2023-04-25T13:42:21;11.33;;;1.90;;
5465;SDS011;2755;50.728;7.108;2023-04-25T13:44:48;4.27;;;1.53;;
5465;SDS011;2755;50.728;7.108;2023-04-25T13:47:13;5.80;;;1.70;;
5465;SDS011;2755;50.728;7.108;2023-04-25T13:49:39;3.03;;;1.53;;
5465;SDS011;2755;50.728;7.108;2023-04-25T13:52:05;5.77;;;1.63;;
5465;SDS011;2755;50.728;7.108;2023-04-25T13:54:31;6.03;;;2.30;;
5465;SDS011;2755;50.728;7.108;2023-04-25T13:56:57;5.27;;;1.70;;
5465;SDS011;2755;50.728;7.108;2023-04-25T13:59:24;3.57;;;2.33;;
5465;SDS011;2755;50.728;7.108;2023-04-25T14:01:50;10.43;;;1.50;;
5465;SDS011;2755;50.728;7.108;2023-04-25T14:04:16;4.00;;;1.80;;
5465;SDS011;2755;50.728;7.108;2023-04-25T14:06:42;5.90;;;1.63;;
5465;SDS011;2755;50.728;7.108;2023-04-25T14:09:08;3.93;;;1.83;;
5465;SDS011;2755;50.728;7.108;2023-04-25T14:11:36;4.33;;;1.53;;
5465;SDS011;2755;50.728;7.108;2023-04-25T14:14:01;6.50;;;2.00;;
5465;SDS011;2755;50.728;7.108;2023-04-25T14:16:28;5.50;;;1.87;;
5465;SDS011;2755;50.728;7.108;2023-04-25T14:18:54;4.80;;;1.70;;
5465;SDS011;2755;50.728;7.108;2023-04-25T14:21:20;16.20;;;2.50;;
5465;SDS011;2755;50.728;7.108;2023-04-25T14:23:46;16.43;;;2.53;;
5465;SDS011;2755;50.728;7.108;2023-04-25T14:26:12;5.70;;;2.03;;
5465;SDS011;2755;50.728;7.108;2023-04-25T14:28:38;8.20;;;1.60;;
5465;SDS011;2755;50.728;7.108;2023-04-25T14:31:04;4.10;;;1.63;;
5465;SDS011;2755;50.728;7.108;2023-04-25T14:33:30;5.90;;;1.80;;
5465;SDS011;2755;50.728;7.108;2023-04-25T14:35:56;4.37;;;1.70;;
5465;SDS011;2755;50.728;7.108;2023-04-25T14:38:22;8.10;;;1.90;;
5465;SDS011;2755;50.728;7.108;2023-04-25T14:40:50;3.90;;;1.87;;
5465;SDS011;2755;50.728;7.108;2023-04-25T14:43:16;4.63;;;1.67;;
5465;SDS011;2755;50.728;7.108;2023-04-25T14:45:42;7.00;;;2.03;;
5465;SDS011;2755;50.728;7.108;2023-04-25T14:48:08;4.40;;;1.47;;
5465;SDS011;2755;50.728;7.108;2023-04-25T14:50:34;8.13;;;2.00;;
5465;SDS011;2755;50.728;7.108;2023-04-25T14:53:00;6.43;;;1.83;;
5465;SDS011;2755;50.728;7.108;2023-04-25T14:55:26;7.60;;;1.70;;
5465;SDS011;2755;50.728;7.108;2023-04-25T14:57:56;7.93;;;1.80;;
5465;SDS011;2755;50.728;7.108;2023-04-25T15:00:22;6.33;;;2.40;;
5465;SDS011;2755;50.728;7.108;2023-04-25T15:02:48;2.73;;;1.40;;
5465;SDS011;2755;50.728;7.108;2023-04-25T15:05:14;5.23;;;1.70;;
5465;SDS011;2755;50.728;7.108;2023-04-25T15:07:40;4.10;;;1.80;;
5465;SDS011;2755;50.728;7.108;2023-04-25T15:10:07;4.00;;;1.13;;
5465;SDS011;2755;50.728;7.108;2023-04-25T15:12:38;2.10;;;1.30;;
5465;SDS011;2755;50.728;7.108;2023-04-25T15:15:10;5.90;;;1.57;;
5465;SDS011;2755;50.728;7.108;2023-04-25T15:17:43;5.33;;;1.40;;
5465;SDS011;2755;50.728;7.108;2023-04-25T15:20:10;8.97;;;1.67;;
5465;SDS011;2755;50.728;7.108;2023-04-25T15:22:37;3.90;;;1.30;;
5465;SDS011;2755;50.728;7.108;2023-04-25T15:25:03;3.53;;;1.47;;